sensor_id;sensor_type;location;lat;lon;timestamp;P1;durP1;ratioP1;P2;durP2;ratioP2
20966;SDS011;10642;50.682;18.510;2023-02-23T00:01:40;37.50;;;17.13;;
20966;SDS011;10642;50.682;18.510;2023-02-23T00:04:07;38.97;;;17.83;;
20966;SDS011;10642;50.682;18.510;2023-02-23T00:06:35;40.87;;;17.03;;
20966;SDS011;10642;50.682;18.510;2023-02-23T00:09:03;39.77;;;16.90;;
20966;SDS011;10642;50.682;18.510;2023-02-23T00:11:37;44.80;;;18.83;;
20966;SDS011;10642;50.682;18.510;2023-02-23T00:14:04;37.07;;;17.13;;
20966;SDS011;10642;50.682;18.510;2023-02-23T00:16:33;35.77;;;16.90;;
20966;SDS011;10642;50.682;18.510;2023-02-23T00:19:00;35.80;;;17.17;;
20966;SDS011;10642;50.682;18.510;2023-02-23T00:21:29;36.13;;;16.37;;
20966;SDS011;10642;50.682;18.510;2023-02-23T00:24:07;32.53;;;14.87;;
20966;SDS011;10642;50.682;18.510;2023-02-23T00:26:35;33.60;;;15.10;;
20966;SDS011;10642;50.682;18.510;2023-02-23T00:29:05;32.43;;;14.63;;
20966;SDS011;10642;50.682;18.510;2023-02-23T00:31:32;34.30;;;16.93;;
20966;SDS011;10642;50.682;18.510;2023-02-23T00:34:04;34.57;;;14.90;;
20966;SDS011;10642;50.682;18.510;2023-02-23T00:36:31;32.53;;;15.07;;
20966;SDS011;10642;50.682;18.510;2023-02-23T00:39:00;34.67;;;15.03;;
20966;SDS011;10642;50.682;18.510;2023-02-23T00:41:27;32.37;;;14.10;;
20966;SDS011;10642;50.682;18.510;2023-02-23T00:43:56;36.10;;;15.10;;
20966;SDS011;10642;50.682;18.510;2023-02-23T00:46:24;35.13;;;14.17;;
20966;SDS011;10642;50.682;18.510;2023-02-23T00:48:53;31.60;;;14.50;;
20966;SDS011;10642;50.682;18.510;2023-02-23T00:51:21;30.80;;;15.07;;
20966;SDS011;10642;50.682;18.510;2023-02-23T00:53:48;33.20;;;13.53;;
20966;SDS011;10642;50.682;18.510;2023-02-23T00:56:19;35.70;;;15.57;;
20966;SDS011;10642;50.682;18.510;2023-02-23T00:58:47;29.70;;;13.40;;
20966;SDS011;10642;50.682;18.510;2023-02-23T01:01:14;28.77;;;13.93;;
20966;SDS011;10642;50.682;18.510;2023-02-23T01:03:41;30.60;;;13.80;;
20966;SDS011;10642;50.682;18.510;2023-02-23T01:06:10;27.97;;;13.27;;
20966;SDS011;10642;50.682;18.510;2023-02-23T01:08:38;26.27;;;12.03;;
20966;SDS011;10642;50.682;18.510;2023-02-23T01:11:06;27.07;;;11.40;;
20966;SDS011;10642;50.682;18.510;2023-02-23T01:13:35;31.63;;;12.53;;
20966;SDS011;10642;50.682;18.510;2023-02-23T01:16:09;26.77;;;12.57;;
20966;SDS011;10642;50.682;18.510;2023-02-23T01:18:37;31.87;;;13.07;;
20966;SDS011;10642;50.682;18.510;2023-02-23T01:21:05;29.17;;;12.97;;
20966;SDS011;10642;50.682;18.510;2023-02-23T01:23:39;24.23;;;11.53;;
20966;SDS011;10642;50.682;18.510;2023-02-23T01:26:13;24.33;;;10.40;;
20966;SDS011;10642;50.682;18.510;2023-02-23T01:28:40;25.50;;;11.77;;
20966;SDS011;10642;50.682;18.510;2023-02-23T01:31:07;26.83;;;11.80;;
20966;SDS011;10642;50.682;18.510;2023-02-23T01:33:35;23.37;;;11.47;;
20966;SDS011;10642;50.682;18.510;2023-02-23T01:36:02;23.87;;;11.03;;
20966;SDS011;10642;50.682;18.510;2023-02-23T01:38:29;21.23;;;11.00;;
20966;SDS011;10642;50.682;18.510;2023-02-23T01:40:56;24.77;;;11.67;;
20966;SDS011;10642;50.682;18.510;2023-02-23T01:43:23;25.23;;;11.43;;
20966;SDS011;10642;50.682;18.510;2023-02-23T01:45:53;26.30;;;10.17;;
20966;SDS011;10642;50.682;18.510;2023-02-23T01:48:43;22.97;;;10.13;;
20966;SDS011;10642;50.682;18.510;2023-02-23T01:51:10;20.27;;;9.60;;
20966;SDS011;10642;50.682;18.510;2023-02-23T01:53:39;22.47;;;10.70;;
20966;SDS011;10642;50.682;18.510;2023-02-23T01:56:08;21.80;;;9.93;;
20966;SDS011;10642;50.682;18.510;2023-02-23T01:58:40;22.07;;;9.57;;
20966;SDS011;10642;50.682;18.510;2023-02-23T02:01:09;21.57;;;10.07;;
20966;SDS011;10642;50.682;18.510;2023-02-23T02:03:44;18.57;;;9.33;;
20966;SDS011;10642;50.682;18.510;2023-02-23T02:06:13;18.30;;;8.97;;
20966;SDS011;10642;50.682;18.510;2023-02-23T02:08:42;24.23;;;10.50;;
20966;SDS011;10642;50.682;18.510;2023-02-23T02:11:13;19.90;;;10.20;;
20966;SDS011;10642;50.682;18.510;2023-02-23T02:13:57;19.23;;;9.93;;
20966;SDS011;10642;50.682;18.510;2023-02-23T02:16:33;21.30;;;8.83;;
20966;SDS011;10642;50.682;18.510;2023-02-23T02:22:03;19.53;;;9.83;;
20966;SDS011;10642;50.682;18.510;2023-02-23T02:37:53;18.23;;;8.33;;
20966;SDS011;10642;50.682;18.510;2023-02-23T02:40:40;17.40;;;8.00;;
20966;SDS011;10642;50.682;18.510;2023-02-23T02:46:01;18.67;;;8.73;;
20966;SDS011;10642;50.682;18.510;2023-02-23T02:48:49;13.53;;;7.73;;
20966;SDS011;10642;50.682;18.510;2023-02-23T02:51:27;17.63;;;7.80;;
20966;SDS011;10642;50.682;18.510;2023-02-23T02:56:24;16.77;;;7.63;;
20966;SDS011;10642;50.682;18.510;2023-02-23T02:58:53;20.90;;;8.67;;
20966;SDS011;10642;50.682;18.510;2023-02-23T03:01:21;16.73;;;8.33;;
20966;SDS011;10642;50.682;18.510;2023-02-23T03:04:22;16.67;;;8.00;;
20966;SDS011;10642;50.682;18.510;2023-02-23T03:07:14;16.73;;;7.63;;
20966;SDS011;10642;50.682;18.510;2023-02-23T03:13:18;15.87;;;6.80;;
20966;SDS011;10642;50.682;18.510;2023-02-23T03:16:14;15.80;;;7.47;;
20966;SDS011;10642;50.682;18.510;2023-02-23T03:19:18;15.03;;;7.50;;
20966;SDS011;10642;50.682;18.510;2023-02-23T03:25:03;18.60;;;7.70;;
20966;SDS011;10642;50.682;18.510;2023-02-23T03:30:43;25.83;;;8.27;;
20966;SDS011;10642;50.682;18.510;2023-02-23T03:33:34;14.40;;;7.27;;
20966;SDS011;10642;50.682;18.510;2023-02-23T03:36:24;14.67;;;7.70;;
20966;SDS011;10642;50.682;18.510;2023-02-23T03:39:13;15.67;;;8.27;;
20966;SDS011;10642;50.682;18.510;2023-02-23T03:42:00;15.17;;;7.40;;
20966;SDS011;10642;50.682;18.510;2023-02-23T03:44:47;16.10;;;7.83;;
20966;SDS011;10642;50.682;18.510;2023-02-23T03:47:34;13.20;;;7.03;;
20966;SDS011;10642;50.682;18.510;2023-02-23T03:50:38;14.97;;;6.97;;
20966;SDS011;10642;50.682;18.510;2023-02-23T03:53:30;17.27;;;8.37;;
20966;SDS011;10642;50.682;18.510;2023-02-23T03:56:17;18.57;;;7.80;;
20966;SDS011;10642;50.682;18.510;2023-02-23T03:59:03;13.00;;;7.77;;
20966;SDS011;10642;50.682;18.510;2023-02-23T04:01:50;16.73;;;8.60;;
20966;SDS011;10642;50.682;18.510;2023-02-23T04:04:38;18.13;;;8.53;;
20966;SDS011;10642;50.682;18.510;2023-02-23T04:07:24;14.37;;;8.17;;
20966;SDS011;10642;50.682;18.510;2023-02-23T04:10:10;13.57;;;7.67;;
20966;SDS011;10642;50.682;18.510;2023-02-23T04:13:03;18.77;;;8.93;;
20966;SDS011;10642;50.682;18.510;2023-02-23T04:18:19;14.37;;;7.60;;
20966;SDS011;10642;50.682;18.510;2023-02-23T04:20:47;20.07;;;9.43;;
20966;SDS011;10642;50.682;18.510;2023-02-23T04:23:14;17.67;;;8.90;;
20966;SDS011;10642;50.682;18.510;2023-02-23T04:25:41;17.53;;;8.67;;
20966;SDS011;10642;50.682;18.510;2023-02-23T04:28:08;14.43;;;8.07;;
20966;SDS011;10642;50.682;18.510;2023-02-23T04:30:35;21.40;;;10.77;;
20966;SDS011;10642;50.682;18.510;2023-02-23T04:33:02;21.97;;;13.27;;
20966;SDS011;10642;50.682;18.510;2023-02-23T04:35:29;37.53;;;21.63;;
20966;SDS011;10642;50.682;18.510;2023-02-23T04:37:56;88.32;;;49.25;;
20966;SDS011;10642;50.682;18.510;2023-02-23T04:40:24;38.57;;;21.10;;
20966;SDS011;10642;50.682;18.510;2023-02-23T04:42:51;37.50;;;20.77;;
20966;SDS011;10642;50.682;18.510;2023-02-23T04:45:18;138.43;;;64.47;;
20966;SDS011;10642;50.682;18.510;2023-02-23T04:47:45;105.83;;;55.17;;
20966;SDS011;10642;50.682;18.510;2023-02-23T04:50:12;73.77;;;43.07;;
20966;SDS011;10642;50.682;18.510;2023-02-23T04:52:39;58.70;;;34.70;;
20966;SDS011;10642;50.682;18.510;2023-02-23T04:55:07;91.33;;;55.00;;
20966;SDS011;10642;50.682;18.510;2023-02-23T04:57:34;85.90;;;49.43;;
20966;SDS011;10642;50.682;18.510;2023-02-23T05:00:01;159.40;;;93.33;;
20966;SDS011;10642;50.682;18.510;2023-02-23T05:02:30;43.33;;;19.17;;
20966;SDS011;10642;50.682;18.510;2023-02-23T05:04:57;92.57;;;25.70;;
20966;SDS011;10642;50.682;18.510;2023-02-23T05:07:24;46.00;;;13.43;;
20966;SDS011;10642;50.682;18.510;2023-02-23T05:09:51;43.70;;;13.60;;
20966;SDS011;10642;50.682;18.510;2023-02-23T05:12:18;100.97;;;54.40;;
20966;SDS011;10642;50.682;18.510;2023-02-23T05:14:46;76.37;;;47.47;;
20966;SDS011;10642;50.682;18.510;2023-02-23T05:17:13;57.13;;;28.90;;
20966;SDS011;10642;50.682;18.510;2023-02-23T05:19:39;33.17;;;13.87;;
20966;SDS011;10642;50.682;18.510;2023-02-23T05:22:07;24.70;;;11.90;;
20966;SDS011;10642;50.682;18.510;2023-02-23T05:24:38;43.07;;;15.10;;
20966;SDS011;10642;50.682;18.510;2023-02-23T05:27:06;49.27;;;16.50;;
20966;SDS011;10642;50.682;18.510;2023-02-23T05:29:33;37.20;;;14.67;;
20966;SDS011;10642;50.682;18.510;2023-02-23T05:32:01;23.83;;;10.90;;
20966;SDS011;10642;50.682;18.510;2023-02-23T05:34:28;29.57;;;12.77;;
20966;SDS011;10642;50.682;18.510;2023-02-23T05:36:54;20.30;;;10.47;;
20966;SDS011;10642;50.682;18.510;2023-02-23T05:39:21;20.97;;;10.10;;
20966;SDS011;10642;50.682;18.510;2023-02-23T05:41:48;21.70;;;11.00;;
20966;SDS011;10642;50.682;18.510;2023-02-23T05:44:15;22.77;;;10.77;;
20966;SDS011;10642;50.682;18.510;2023-02-23T05:46:43;21.30;;;10.90;;
20966;SDS011;10642;50.682;18.510;2023-02-23T05:49:10;21.57;;;11.53;;
20966;SDS011;10642;50.682;18.510;2023-02-23T05:51:38;42.20;;;23.73;;
20966;SDS011;10642;50.682;18.510;2023-02-23T05:54:05;99.97;;;28.80;;
20966;SDS011;10642;50.682;18.510;2023-02-23T05:56:32;68.53;;;19.90;;
20966;SDS011;10642;50.682;18.510;2023-02-23T05:58:59;56.90;;;20.67;;
20966;SDS011;10642;50.682;18.510;2023-02-23T06:01:28;61.37;;;20.33;;
20966;SDS011;10642;50.682;18.510;2023-02-23T06:03:55;47.70;;;16.97;;
20966;SDS011;10642;50.682;18.510;2023-02-23T06:06:22;35.70;;;14.63;;
20966;SDS011;10642;50.682;18.510;2023-02-23T06:08:51;30.13;;;12.80;;
20966;SDS011;10642;50.682;18.510;2023-02-23T06:11:18;26.47;;;12.97;;
20966;SDS011;10642;50.682;18.510;2023-02-23T06:13:45;25.53;;;12.53;;
20966;SDS011;10642;50.682;18.510;2023-02-23T06:16:13;25.93;;;12.23;;
20966;SDS011;10642;50.682;18.510;2023-02-23T06:18:40;34.73;;;15.03;;
20966;SDS011;10642;50.682;18.510;2023-02-23T06:21:07;31.67;;;13.33;;
20966;SDS011;10642;50.682;18.510;2023-02-23T06:23:34;26.17;;;12.13;;
20966;SDS011;10642;50.682;18.510;2023-02-23T06:26:01;23.27;;;12.87;;
20966;SDS011;10642;50.682;18.510;2023-02-23T06:28:28;29.30;;;14.67;;
20966;SDS011;10642;50.682;18.510;2023-02-23T06:30:55;37.87;;;20.87;;
20966;SDS011;10642;50.682;18.510;2023-02-23T06:33:22;67.17;;;42.57;;
20966;SDS011;10642;50.682;18.510;2023-02-23T06:35:49;47.23;;;29.57;;
20966;SDS011;10642;50.682;18.510;2023-02-23T06:38:16;49.27;;;21.07;;
20966;SDS011;10642;50.682;18.510;2023-02-23T06:40:43;33.27;;;14.87;;
20966;SDS011;10642;50.682;18.510;2023-02-23T06:43:10;41.77;;;16.17;;
20966;SDS011;10642;50.682;18.510;2023-02-23T06:45:37;39.93;;;18.50;;
20966;SDS011;10642;50.682;18.510;2023-02-23T06:48:04;39.73;;;16.10;;
20966;SDS011;10642;50.682;18.510;2023-02-23T06:50:31;45.70;;;17.00;;
20966;SDS011;10642;50.682;18.510;2023-02-23T06:52:58;30.03;;;13.97;;
20966;SDS011;10642;50.682;18.510;2023-02-23T06:55:24;30.00;;;13.90;;
20966;SDS011;10642;50.682;18.510;2023-02-23T06:57:51;26.97;;;13.47;;
20966;SDS011;10642;50.682;18.510;2023-02-23T07:00:20;27.97;;;12.90;;
20966;SDS011;10642;50.682;18.510;2023-02-23T07:02:47;24.17;;;12.77;;
20966;SDS011;10642;50.682;18.510;2023-02-23T07:05:14;25.70;;;13.10;;
20966;SDS011;10642;50.682;18.510;2023-02-23T07:07:41;30.60;;;17.27;;
20966;SDS011;10642;50.682;18.510;2023-02-23T07:10:09;51.20;;;29.90;;
20966;SDS011;10642;50.682;18.510;2023-02-23T07:12:36;41.13;;;26.60;;
20966;SDS011;10642;50.682;18.510;2023-02-23T07:15:03;42.37;;;24.53;;
20966;SDS011;10642;50.682;18.510;2023-02-23T07:17:30;29.47;;;16.30;;
20966;SDS011;10642;50.682;18.510;2023-02-23T07:19:57;33.30;;;13.63;;
20966;SDS011;10642;50.682;18.510;2023-02-23T07:22:24;26.03;;;13.40;;
20966;SDS011;10642;50.682;18.510;2023-02-23T07:24:57;33.37;;;13.60;;
20966;SDS011;10642;50.682;18.510;2023-02-23T07:27:24;32.40;;;14.20;;
20966;SDS011;10642;50.682;18.510;2023-02-23T07:29:53;27.10;;;12.73;;
20966;SDS011;10642;50.682;18.510;2023-02-23T07:32:20;33.03;;;14.67;;
20966;SDS011;10642;50.682;18.510;2023-02-23T07:34:47;26.87;;;13.67;;
20966;SDS011;10642;50.682;18.510;2023-02-23T07:37:14;27.87;;;14.47;;
20966;SDS011;10642;50.682;18.510;2023-02-23T07:39:42;27.13;;;15.43;;
20966;SDS011;10642;50.682;18.510;2023-02-23T07:42:09;29.23;;;12.80;;
20966;SDS011;10642;50.682;18.510;2023-02-23T07:44:37;23.50;;;12.83;;
20966;SDS011;10642;50.682;18.510;2023-02-23T07:47:04;27.00;;;13.57;;
20966;SDS011;10642;50.682;18.510;2023-02-23T07:49:31;28.50;;;14.03;;
20966;SDS011;10642;50.682;18.510;2023-02-23T07:51:58;24.17;;;12.77;;
20966;SDS011;10642;50.682;18.510;2023-02-23T07:54:25;30.17;;;14.47;;
20966;SDS011;10642;50.682;18.510;2023-02-23T07:56:52;28.47;;;13.70;;
20966;SDS011;10642;50.682;18.510;2023-02-23T07:59:19;35.30;;;15.33;;
20966;SDS011;10642;50.682;18.510;2023-02-23T08:01:46;31.80;;;14.63;;
20966;SDS011;10642;50.682;18.510;2023-02-23T08:04:13;24.50;;;13.27;;
20966;SDS011;10642;50.682;18.510;2023-02-23T08:06:40;26.97;;;12.27;;
20966;SDS011;10642;50.682;18.510;2023-02-23T08:09:07;29.10;;;13.10;;
20966;SDS011;10642;50.682;18.510;2023-02-23T08:11:34;30.20;;;13.40;;
20966;SDS011;10642;50.682;18.510;2023-02-23T08:14:01;27.93;;;13.43;;
20966;SDS011;10642;50.682;18.510;2023-02-23T08:16:28;26.83;;;13.60;;
20966;SDS011;10642;50.682;18.510;2023-02-23T08:18:56;30.23;;;14.70;;
20966;SDS011;10642;50.682;18.510;2023-02-23T08:21:27;27.37;;;13.93;;
20966;SDS011;10642;50.682;18.510;2023-02-23T08:23:55;28.07;;;14.73;;
20966;SDS011;10642;50.682;18.510;2023-02-23T08:26:22;38.73;;;15.20;;
20966;SDS011;10642;50.682;18.510;2023-02-23T08:28:51;32.17;;;15.40;;
20966;SDS011;10642;50.682;18.510;2023-02-23T08:31:18;30.67;;;13.90;;
20966;SDS011;10642;50.682;18.510;2023-02-23T08:33:50;27.90;;;13.67;;
20966;SDS011;10642;50.682;18.510;2023-02-23T08:36:17;32.60;;;14.43;;
20966;SDS011;10642;50.682;18.510;2023-02-23T08:38:46;27.53;;;13.43;;
20966;SDS011;10642;50.682;18.510;2023-02-23T08:41:13;25.27;;;12.67;;
20966;SDS011;10642;50.682;18.510;2023-02-23T08:43:40;28.83;;;14.07;;
20966;SDS011;10642;50.682;18.510;2023-02-23T08:46:09;25.47;;;14.50;;
20966;SDS011;10642;50.682;18.510;2023-02-23T08:48:36;24.17;;;12.90;;
20966;SDS011;10642;50.682;18.510;2023-02-23T08:51:05;33.60;;;15.03;;
20966;SDS011;10642;50.682;18.510;2023-02-23T08:53:32;26.80;;;14.23;;
20966;SDS011;10642;50.682;18.510;2023-02-23T08:56:00;30.03;;;13.30;;
20966;SDS011;10642;50.682;18.510;2023-02-23T08:58:28;29.53;;;13.57;;
20966;SDS011;10642;50.682;18.510;2023-02-23T09:00:56;29.90;;;14.57;;
20966;SDS011;10642;50.682;18.510;2023-02-23T09:03:25;32.77;;;14.13;;
20966;SDS011;10642;50.682;18.510;2023-02-23T09:05:54;28.07;;;13.37;;
20966;SDS011;10642;50.682;18.510;2023-02-23T09:08:21;29.67;;;14.67;;
20966;SDS011;10642;50.682;18.510;2023-02-23T09:10:48;35.00;;;14.07;;
20966;SDS011;10642;50.682;18.510;2023-02-23T09:13:14;29.27;;;14.43;;
20966;SDS011;10642;50.682;18.510;2023-02-23T09:15:42;28.20;;;13.83;;
20966;SDS011;10642;50.682;18.510;2023-02-23T09:18:10;28.37;;;14.37;;
20966;SDS011;10642;50.682;18.510;2023-02-23T09:20:40;25.33;;;12.50;;
20966;SDS011;10642;50.682;18.510;2023-02-23T09:23:07;28.40;;;13.03;;
20966;SDS011;10642;50.682;18.510;2023-02-23T09:25:37;29.43;;;14.80;;
20966;SDS011;10642;50.682;18.510;2023-02-23T09:28:05;34.73;;;14.10;;
20966;SDS011;10642;50.682;18.510;2023-02-23T09:30:31;32.25;;;14.50;;
20966;SDS011;10642;50.682;18.510;2023-02-23T09:32:58;29.67;;;13.77;;
20966;SDS011;10642;50.682;18.510;2023-02-23T09:35:25;32.00;;;13.97;;
20966;SDS011;10642;50.682;18.510;2023-02-23T09:37:53;27.43;;;13.63;;
20966;SDS011;10642;50.682;18.510;2023-02-23T09:40:22;33.43;;;14.13;;
20966;SDS011;10642;50.682;18.510;2023-02-23T09:45:42;27.37;;;12.47;;
20966;SDS011;10642;50.682;18.510;2023-02-23T09:48:19;32.00;;;14.47;;
20966;SDS011;10642;50.682;18.510;2023-02-23T09:50:50;31.87;;;14.60;;
20966;SDS011;10642;50.682;18.510;2023-02-23T09:55:45;29.60;;;14.57;;
20966;SDS011;10642;50.682;18.510;2023-02-23T09:58:19;28.00;;;12.83;;
20966;SDS011;10642;50.682;18.510;2023-02-23T10:00:48;29.23;;;13.77;;
20966;SDS011;10642;50.682;18.510;2023-02-23T10:03:22;27.97;;;13.17;;
20966;SDS011;10642;50.682;18.510;2023-02-23T10:05:52;28.87;;;14.17;;
20966;SDS011;10642;50.682;18.510;2023-02-23T10:16:17;27.43;;;13.90;;
20966;SDS011;10642;50.682;18.510;2023-02-23T10:19:20;31.73;;;13.50;;
20966;SDS011;10642;50.682;18.510;2023-02-23T10:21:39;29.60;;;13.70;;
20966;SDS011;10642;50.682;18.510;2023-02-23T10:24:10;31.90;;;13.33;;
20966;SDS011;10642;50.682;18.510;2023-02-23T10:29:33;24.60;;;12.93;;
20966;SDS011;10642;50.682;18.510;2023-02-23T10:32:01;27.33;;;13.00;;
20966;SDS011;10642;50.682;18.510;2023-02-23T10:34:30;27.27;;;12.73;;
20966;SDS011;10642;50.682;18.510;2023-02-23T10:36:58;30.50;;;13.67;;
20966;SDS011;10642;50.682;18.510;2023-02-23T10:39:26;26.73;;;12.40;;
20966;SDS011;10642;50.682;18.510;2023-02-23T10:41:54;30.53;;;13.90;;
20966;SDS011;10642;50.682;18.510;2023-02-23T10:44:23;25.63;;;11.47;;
20966;SDS011;10642;50.682;18.510;2023-02-23T10:46:55;26.07;;;12.90;;
20966;SDS011;10642;50.682;18.510;2023-02-23T10:49:25;27.03;;;13.23;;
20966;SDS011;10642;50.682;18.510;2023-02-23T10:51:55;30.23;;;13.70;;
20966;SDS011;10642;50.682;18.510;2023-02-23T10:54:39;25.67;;;12.63;;
20966;SDS011;10642;50.682;18.510;2023-02-23T10:57:10;29.37;;;13.53;;
20966;SDS011;10642;50.682;18.510;2023-02-23T10:59:41;22.83;;;12.00;;
20966;SDS011;10642;50.682;18.510;2023-02-23T11:02:23;24.37;;;11.07;;
20966;SDS011;10642;50.682;18.510;2023-02-23T11:04:52;25.53;;;11.60;;
20966;SDS011;10642;50.682;18.510;2023-02-23T11:07:23;22.87;;;10.07;;
20966;SDS011;10642;50.682;18.510;2023-02-23T11:09:50;26.30;;;10.83;;
20966;SDS011;10642;50.682;18.510;2023-02-23T11:14:48;23.77;;;11.37;;
20966;SDS011;10642;50.682;18.510;2023-02-23T11:17:53;18.40;;;10.03;;
20966;SDS011;10642;50.682;18.510;2023-02-23T11:23:09;24.50;;;11.63;;
20966;SDS011;10642;50.682;18.510;2023-02-23T11:25:41;21.47;;;10.60;;
20966;SDS011;10642;50.682;18.510;2023-02-23T11:28:18;28.07;;;11.23;;
20966;SDS011;10642;50.682;18.510;2023-02-23T11:30:47;21.90;;;11.63;;
20966;SDS011;10642;50.682;18.510;2023-02-23T11:33:18;26.63;;;10.63;;
20966;SDS011;10642;50.682;18.510;2023-02-23T11:35:47;22.60;;;9.37;;
20966;SDS011;10642;50.682;18.510;2023-02-23T11:38:21;24.33;;;10.63;;
20966;SDS011;10642;50.682;18.510;2023-02-23T11:43:25;22.23;;;9.93;;
20966;SDS011;10642;50.682;18.510;2023-02-23T11:45:53;23.10;;;9.57;;
20966;SDS011;10642;50.682;18.510;2023-02-23T11:50:53;22.90;;;9.77;;
20966;SDS011;10642;50.682;18.510;2023-02-23T11:53:32;31.10;;;10.90;;
20966;SDS011;10642;50.682;18.510;2023-02-23T11:56:01;28.00;;;11.63;;
20966;SDS011;10642;50.682;18.510;2023-02-23T12:01:11;23.30;;;9.90;;
20966;SDS011;10642;50.682;18.510;2023-02-23T12:03:43;23.03;;;10.87;;
20966;SDS011;10642;50.682;18.510;2023-02-23T12:06:11;23.87;;;11.77;;
20966;SDS011;10642;50.682;18.510;2023-02-23T12:11:06;21.83;;;10.23;;
20966;SDS011;10642;50.682;18.510;2023-02-23T12:13:44;30.10;;;11.03;;
20966;SDS011;10642;50.682;18.510;2023-02-23T12:16:24;24.00;;;11.10;;
20966;SDS011;10642;50.682;18.510;2023-02-23T12:26:29;19.97;;;10.13;;
20966;SDS011;10642;50.682;18.510;2023-02-23T12:29:00;20.57;;;10.27;;
20966;SDS011;10642;50.682;18.510;2023-02-23T12:34:16;25.40;;;12.33;;
20966;SDS011;10642;50.682;18.510;2023-02-23T12:36:49;26.30;;;12.53;;
20966;SDS011;10642;50.682;18.510;2023-02-23T12:39:31;28.43;;;12.53;;
20966;SDS011;10642;50.682;18.510;2023-02-23T12:46:54;29.60;;;12.77;;
20966;SDS011;10642;50.682;18.510;2023-02-23T12:49:29;22.83;;;11.60;;
20966;SDS011;10642;50.682;18.510;2023-02-23T12:52:03;26.77;;;11.70;;
20966;SDS011;10642;50.682;18.510;2023-02-23T12:54:34;28.50;;;12.77;;
20966;SDS011;10642;50.682;18.510;2023-02-23T13:02:39;20.33;;;10.10;;
20966;SDS011;10642;50.682;18.510;2023-02-23T13:07:57;25.37;;;11.17;;
20966;SDS011;10642;50.682;18.510;2023-02-23T13:15:56;23.63;;;11.37;;
20966;SDS011;10642;50.682;18.510;2023-02-23T13:21:21;28.43;;;13.27;;
20966;SDS011;10642;50.682;18.510;2023-02-23T13:31:41;31.27;;;13.13;;
20966;SDS011;10642;50.682;18.510;2023-02-23T13:34:10;25.43;;;11.87;;
20966;SDS011;10642;50.682;18.510;2023-02-23T13:36:39;26.07;;;9.70;;
20966;SDS011;10642;50.682;18.510;2023-02-23T13:41:47;31.40;;;11.47;;
20966;SDS011;10642;50.682;18.510;2023-02-23T13:49:31;32.80;;;13.97;;
20966;SDS011;10642;50.682;18.510;2023-02-23T13:52:18;30.27;;;12.63;;
20966;SDS011;10642;50.682;18.510;2023-02-23T13:54:54;31.20;;;13.43;;
20966;SDS011;10642;50.682;18.510;2023-02-23T13:57:23;25.10;;;13.47;;
20966;SDS011;10642;50.682;18.510;2023-02-23T13:59:50;27.53;;;13.67;;
20966;SDS011;10642;50.682;18.510;2023-02-23T14:07:41;34.53;;;14.03;;
20966;SDS011;10642;50.682;18.510;2023-02-23T14:10:18;30.33;;;14.70;;
20966;SDS011;10642;50.682;18.510;2023-02-23T14:13:05;28.10;;;14.23;;
20966;SDS011;10642;50.682;18.510;2023-02-23T14:18:04;39.03;;;14.93;;
20966;SDS011;10642;50.682;18.510;2023-02-23T14:31:18;30.80;;;14.23;;
20966;SDS011;10642;50.682;18.510;2023-02-23T14:46:49;33.50;;;16.40;;
20966;SDS011;10642;50.682;18.510;2023-02-23T14:49:20;37.77;;;15.50;;
20966;SDS011;10642;50.682;18.510;2023-02-23T14:51:48;31.57;;;15.67;;
20966;SDS011;10642;50.682;18.510;2023-02-23T14:56:54;33.43;;;15.40;;
20966;SDS011;10642;50.682;18.510;2023-02-23T14:59:25;32.00;;;15.77;;
20966;SDS011;10642;50.682;18.510;2023-02-23T15:01:54;34.10;;;16.13;;
20966;SDS011;10642;50.682;18.510;2023-02-23T15:04:22;39.30;;;15.03;;
20966;SDS011;10642;50.682;18.510;2023-02-23T15:06:54;31.23;;;16.20;;
20966;SDS011;10642;50.682;18.510;2023-02-23T15:09:24;31.05;;;15.35;;
20966;SDS011;10642;50.682;18.510;2023-02-23T15:11:55;31.73;;;15.47;;
20966;SDS011;10642;50.682;18.510;2023-02-23T15:14:23;28.23;;;14.63;;
20966;SDS011;10642;50.682;18.510;2023-02-23T15:16:54;33.53;;;15.43;;
20966;SDS011;10642;50.682;18.510;2023-02-23T15:19:30;34.17;;;15.13;;
20966;SDS011;10642;50.682;18.510;2023-02-23T15:21:58;32.77;;;15.53;;
20966;SDS011;10642;50.682;18.510;2023-02-23T15:24:27;29.43;;;15.40;;
20966;SDS011;10642;50.682;18.510;2023-02-23T15:26:56;33.87;;;15.77;;
20966;SDS011;10642;50.682;18.510;2023-02-23T15:29:25;31.87;;;15.63;;
20966;SDS011;10642;50.682;18.510;2023-02-23T15:31:52;33.67;;;15.70;;
20966;SDS011;10642;50.682;18.510;2023-02-23T15:34:22;34.70;;;15.60;;
20966;SDS011;10642;50.682;18.510;2023-02-23T15:36:57;36.80;;;16.07;;
20966;SDS011;10642;50.682;18.510;2023-02-23T15:39:36;37.60;;;15.77;;
20966;SDS011;10642;50.682;18.510;2023-02-23T15:42:04;36.73;;;17.90;;
20966;SDS011;10642;50.682;18.510;2023-02-23T15:44:32;32.97;;;17.47;;
20966;SDS011;10642;50.682;18.510;2023-02-23T15:47:14;36.53;;;18.20;;
20966;SDS011;10642;50.682;18.510;2023-02-23T15:49:44;40.90;;;18.17;;
20966;SDS011;10642;50.682;18.510;2023-02-23T15:52:15;33.93;;;16.87;;
20966;SDS011;10642;50.682;18.510;2023-02-23T15:54:51;39.13;;;19.87;;
20966;SDS011;10642;50.682;18.510;2023-02-23T15:57:21;29.87;;;15.87;;
20966;SDS011;10642;50.682;18.510;2023-02-23T15:59:52;42.13;;;16.87;;
20966;SDS011;10642;50.682;18.510;2023-02-23T16:02:23;29.07;;;14.47;;
20966;SDS011;10642;50.682;18.510;2023-02-23T16:04:50;36.57;;;15.37;;
20966;SDS011;10642;50.682;18.510;2023-02-23T16:07:20;30.87;;;14.87;;
20966;SDS011;10642;50.682;18.510;2023-02-23T16:09:48;31.43;;;15.17;;
20966;SDS011;10642;50.682;18.510;2023-02-23T16:12:17;27.50;;;14.50;;
20966;SDS011;10642;50.682;18.510;2023-02-23T16:14:49;30.63;;;15.83;;
20966;SDS011;10642;50.682;18.510;2023-02-23T16:17:24;30.27;;;13.63;;
20966;SDS011;10642;50.682;18.510;2023-02-23T16:19:56;27.50;;;12.73;;
20966;SDS011;10642;50.682;18.510;2023-02-23T16:22:36;28.53;;;13.80;;
20966;SDS011;10642;50.682;18.510;2023-02-23T16:25:06;26.83;;;13.33;;
20966;SDS011;10642;50.682;18.510;2023-02-23T16:27:34;35.93;;;14.03;;
20966;SDS011;10642;50.682;18.510;2023-02-23T16:30:04;32.13;;;14.60;;
20966;SDS011;10642;50.682;18.510;2023-02-23T16:32:34;29.67;;;15.13;;
20966;SDS011;10642;50.682;18.510;2023-02-23T16:35:23;32.87;;;14.20;;
20966;SDS011;10642;50.682;18.510;2023-02-23T16:37:50;30.63;;;15.23;;
20966;SDS011;10642;50.682;18.510;2023-02-23T16:40:18;27.07;;;13.73;;
20966;SDS011;10642;50.682;18.510;2023-02-23T16:42:45;32.37;;;15.43;;
20966;SDS011;10642;50.682;18.510;2023-02-23T16:45:15;36.67;;;16.30;;
20966;SDS011;10642;50.682;18.510;2023-02-23T16:47:43;31.60;;;16.13;;
20966;SDS011;10642;50.682;18.510;2023-02-23T16:52:47;35.33;;;16.67;;
20966;SDS011;10642;50.682;18.510;2023-02-23T16:55:24;32.90;;;16.37;;
20966;SDS011;10642;50.682;18.510;2023-02-23T16:57:53;33.80;;;16.17;;
20966;SDS011;10642;50.682;18.510;2023-02-23T17:00:22;36.30;;;16.73;;
20966;SDS011;10642;50.682;18.510;2023-02-23T17:02:50;33.83;;;17.03;;